Time;durP1;ratioP1;P1;durP2;ratioP2;P2;SDS_P1;SDS_P2;PMS_P1;PMS_P2;Temp;Humidity;BMP_temperature;BMP_pressure;BME280_temperature;BME280_humidity;BME280_pressure;Samples;Min_cycle;Max_cycle;Signal;HPM_P1;HPM_P2
2022/01/22 00:00:31;;;;;;;12.25;4.22;;;-1.00;90.00;;;;;;6211020;23;20020;-93
2022/01/22 00:02:57;;;;;;;7.43;4.10;;;-1.00;89.50;;;;;;6193115;23;20005;-93
2022/01/22 00:05:23;;;;;;;6.72;3.75;;;-0.90;89.80;;;;;;6165620;23;20008;-92
2022/01/22 00:07:49;;;;;;;7.95;4.18;;;-1.00;89.60;;;;;;6190413;23;20005;-93
2022/01/22 00:10:18;;;;;;;10.30;4.70;;;-0.90;89.70;;;;;;6191437;23;20012;-93
2022/01/22 00:15:16;;;;;;;8.85;4.43;;;-0.90;89.70;;;;;;6200997;23;20321;-92
2022/01/22 00:17:42;;;;;;;8.10;4.28;;;-0.90;89.00;;;;;;6190236;23;19993;-93
2022/01/22 00:20:09;;;;;;;8.02;4.22;;;-0.90;89.20;;;;;;6189858;23;20051;-92
2022/01/22 00:22:36;;;;;;;7.70;4.10;;;-0.90;88.90;;;;;;6190680;23;19997;-91
2022/01/22 00:25:07;;;;;;;8.27;4.38;;;-0.90;88.50;;;;;;6189019;23;20005;-91
2022/01/22 00:27:33;;;;;;;7.53;3.95;;;-0.90;88.50;;;;;;6190820;23;19997;-92
2022/01/22 00:29:59;;;;;;;6.53;4.30;;;-0.90;88.40;;;;;;6189534;23;20051;-94
2022/01/22 00:32:24;;;;;;;7.60;4.60;;;-0.90;88.40;;;;;;6189084;23;20016;-91
2022/01/22 00:34:51;;;;;;;9.20;4.47;;;-0.80;88.00;;;;;;6188673;23;20132;-92
2022/01/22 00:37:17;;;;;;;7.82;3.95;;;-0.90;87.90;;;;;;6169791;23;20064;-92
2022/01/22 00:39:43;;;;;;;9.98;4.60;;;-0.80;88.00;;;;;;6190374;23;20005;-91
2022/01/22 00:42:14;;;;;;;8.82;4.32;;;-0.90;88.00;;;;;;6189324;23;19997;-92
2022/01/22 00:44:40;;;;;;;;;;;-0.90;87.90;;;;;;6167348;23;20036;-91
2022/01/22 00:47:07;;;;;;;8.07;4.57;;;-0.90;87.60;;;;;;6165682;23;19900;-90
2022/01/22 00:49:33;;;;;;;9.73;4.72;;;-0.90;87.90;;;;;;6187681;23;20012;-93
2022/01/22 00:51:59;;;;;;;10.07;4.40;;;-1.00;87.80;;;;;;6167360;23;20009;-93
2022/01/22 00:54:25;;;;;;;8.65;4.43;;;-1.00;88.10;;;;;;6194064;23;20003;-93
2022/01/22 00:56:51;;;;;;;8.90;4.45;;;-1.00;88.10;;;;;;6200695;23;20018;-92
2022/01/22 00:59:16;;;;;;;8.63;4.53;;;-1.00;88.30;;;;;;6168604;23;20092;-95
2022/01/22 01:01:43;;;;;;;10.57;4.13;;;-1.10;88.50;;;;;;6166678;23;20001;-94
2022/01/22 01:04:10;;;;;;;8.40;4.50;;;-1.00;88.50;;;;;;6167426;23;20001;-93
2022/01/22 01:06:38;;;;;;;8.82;4.18;;;-1.10;88.40;;;;;;6167079;23;19996;-93
2022/01/22 01:09:06;;;;;;;8.13;4.30;;;-1.10;88.50;;;;;;6192869;23;20029;-93
2022/01/22 01:11:36;;;;;;;8.13;4.53;;;-1.10;88.70;;;;;;6175662;23;20013;-92
2022/01/22 01:14:04;;;;;;;6.70;4.22;;;-1.10;88.80;;;;;;6182218;23;20008;-94
2022/01/22 01:35:22;;;;;;;8.65;4.20;;;-1.10;89.50;;;;;;6187696;23;20316;-92
2022/01/22 01:37:48;;;;;;;8.63;4.22;;;-1.10;89.70;;;;;;6187583;23;20024;-92
2022/01/22 01:40:18;;;;;;;8.35;4.75;;;-1.10;89.60;;;;;;6161006;23;20016;-92
2022/01/22 01:43:06;;;;;;;7.20;3.87;;;-1.10;89.60;;;;;;6160811;23;20005;-92
2022/01/22 01:45:32;;;;;;;9.70;4.45;;;-1.10;89.70;;;;;;6161839;23;20008;-93
2022/01/22 01:48:03;;;;;;;7.50;4.43;;;-1.00;89.40;;;;;;6161448;23;20001;-92
2022/01/22 01:50:31;;;;;;;8.60;4.50;;;-1.00;89.00;;;;;;6161284;23;20092;-92
2022/01/22 01:56:00;;;;;;;8.55;4.68;;;-1.00;89.00;;;;;;6187910;23;20023;-91
2022/01/22 01:58:30;;;;;;;10.27;4.93;;;-1.00;89.30;;;;;;6161685;23;20004;-94
2022/01/22 02:01:00;;;;;;;9.18;4.65;;;-1.00;89.10;;;;;;6187766;23;20001;-93
2022/01/22 02:03:26;;;;;;;8.18;4.22;;;-1.00;89.50;;;;;;6161625;23;20005;-94
2022/01/22 02:05:52;;;;;;;8.55;4.60;;;-1.10;89.90;;;;;;6187747;23;20231;-93
2022/01/22 02:08:19;;;;;;;7.13;4.15;;;-1.10;90.00;;;;;;6161292;23;20496;-93
2022/01/22 02:10:54;;;;;;;11.15;4.85;;;-1.10;90.10;;;;;;6161837;23;20041;-92
2022/01/22 02:24:35;;;;;;;8.50;4.10;;;-1.10;90.40;;;;;;6188060;23;20012;-93
2022/01/22 02:27:01;;;;;;;8.20;4.72;;;-1.10;90.50;;;;;;6161933;23;20009;-93
2022/01/22 02:29:27;;;;;;;8.23;4.22;;;-1.10;90.60;;;;;;6186631;23;20001;-94
2022/01/22 02:34:55;;;;;;;9.65;5.35;;;-1.10;90.70;;;;;;6144946;23;20008;-92
2022/01/22 02:37:23;;;;;;;;;;;-1.10;90.70;;;;;;6162153;23;20004;-92
2022/01/22 02:42:54;;;;;;;8.13;4.43;;;-1.10;90.80;;;;;;6069205;23;20059;-89
2022/01/22 02:45:22;;;;;;;9.90;4.50;;;-1.10;91.00;;;;;;6068946;23;20006;-92
2022/01/22 02:47:49;;;;;;;9.55;4.70;;;-1.10;91.30;;;;;;6126579;23;20009;-91
2022/01/22 02:50:16;;;;;;;9.85;4.78;;;-1.10;91.70;;;;;;6189450;23;20001;-92
2022/01/22 02:52:42;;;;;;;7.90;4.53;;;-1.20;91.70;;;;;;6164153;23;20145;-91
2022/01/22 02:55:08;;;;;;;11.50;4.72;;;-1.20;91.80;;;;;;6163362;23;20024;-90
2022/01/22 02:57:35;;;;;;;8.43;4.47;;;-1.20;92.00;;;;;;6189586;23;20010;-90
2022/01/22 03:00:06;;;;;;;9.35;4.38;;;-1.20;92.10;;;;;;6163578;23;20001;-91
2022/01/22 03:02:31;;;;;;;11.27;4.95;;;-1.10;92.20;;;;;;6189821;23;19993;-90
2022/01/22 03:04:57;;;;;;;8.43;4.70;;;-1.20;92.30;;;;;;6162979;23;19997;-92
2022/01/22 03:07:24;;;;;;;9.20;4.70;;;-1.10;92.40;;;;;;6189426;23;20007;-93
2022/01/22 03:09:51;;;;;;;8.02;4.68;;;-1.10;92.50;;;;;;6187799;23;20001;-93
2022/01/22 03:27:53;;;;;;;9.70;5.70;;;-1.20;93.70;;;;;;6189732;23;20032;-92
2022/01/22 03:30:19;;;;;;;10.70;4.80;;;-1.20;93.70;;;;;;6170285;23;20001;-90
2022/01/22 03:32:49;;;;;;;10.10;4.85;;;-1.20;93.90;;;;;;6188811;23;20028;-93
2022/01/22 03:37:50;;;;;;;10.23;5.10;;;-1.20;94.30;;;;;;6204494;23;20432;-94
2022/01/22 03:40:16;;;;;;;8.50;4.43;;;-1.20;94.40;;;;;;6190830;23;20005;-93
2022/01/22 03:42:42;;;;;;;9.50;4.32;;;-1.20;94.50;;;;;;6162869;23;20079;-92
2022/01/22 03:45:10;;;;;;;10.65;4.55;;;-1.20;94.50;;;;;;6188907;23;19997;-89
2022/01/22 03:47:36;;;;;;;7.38;4.20;;;-1.20;94.60;;;;;;6186920;23;20004;-91
2022/01/22 03:50:03;;;;;;;10.00;4.88;;;-1.20;94.60;;;;;;6186530;23;20420;-89
2022/01/22 03:52:28;;;;;;;9.68;4.72;;;-1.20;94.70;;;;;;6186297;23;20001;-91
2022/01/22 03:54:57;;;;;;;7.13;4.57;;;-1.20;94.80;;;;;;6187953;23;20049;-90
2022/01/22 03:57:23;;;;;;;11.02;4.85;;;-1.20;94.90;;;;;;6186285;23;19997;-91
2022/01/22 03:59:51;;;;;;;10.90;4.88;;;-1.10;94.90;;;;;;6186577;23;20008;-90
2022/01/22 04:04:56;;;;;;;10.60;4.65;;;-1.20;95.30;;;;;;6198529;23;20001;-91
2022/01/22 04:10:09;;;;;;;8.73;4.60;;;-1.20;95.30;;;;;;6142642;23;20005;-90
2022/01/22 04:12:46;;;;;;;9.35;4.95;;;-1.20;95.30;;;;;;6162562;23;20009;-93
2022/01/22 04:15:17;;;;;;;10.63;5.43;;;-1.20;95.50;;;;;;6163063;23;20004;-93
2022/01/22 04:25:57;;;;;;;8.23;4.63;;;-1.20;95.90;;;;;;6188510;23;20011;-90
2022/01/22 04:28:23;;;;;;;9.13;5.25;;;-1.20;96.20;;;;;;6188082;23;20432;-94
2022/01/22 04:30:48;;;;;;;8.77;5.03;;;-1.20;96.40;;;;;;6161785;23;20027;-91
2022/01/22 04:33:14;;;;;;;13.57;5.65;;;-1.30;96.70;;;;;;6188778;23;20001;-92
2022/01/22 04:35:40;;;;;;;10.05;5.68;;;-1.20;96.90;;;;;;6188673;23;20084;-95
2022/01/22 04:38:05;;;;;;;11.65;5.60;;;-1.30;97.30;;;;;;6163391;23;20009;-91
2022/01/22 04:40:31;;;;;;;10.15;5.05;;;-1.30;97.60;;;;;;6187563;23;20062;-92
2022/01/22 04:42:59;;;;;;;11.68;5.43;;;-1.30;97.90;;;;;;6187473;23;20004;-92
2022/01/22 04:45:43;;;;;;;11.75;5.68;;;-1.30;97.90;;;;;;6161371;23;20012;-93
2022/01/22 04:55:53;;;;;;;9.60;4.72;;;-1.40;98.30;;;;;;6192289;23;19997;-92
2022/01/22 04:58:19;;;;;;;10.35;5.03;;;-1.40;98.40;;;;;;6189746;23;20088;-92
2022/01/22 05:00:45;;;;;;;10.70;5.45;;;-1.50;99.00;;;;;;6162125;23;20444;-92
2022/01/22 05:03:12;;;;;;;10.18;4.93;;;-1.50;99.40;;;;;;6192903;23;20029;-90
2022/01/22 05:05:40;;;;;;;8.07;5.10;;;-1.50;99.50;;;;;;6164281;23;20008;-92
2022/01/22 05:08:06;;;;;;;10.88;5.18;;;-1.50;99.50;;;;;;6187428;23;20008;-93
2022/01/22 05:10:32;;;;;;;47.60;18.00;;;-1.50;99.50;;;;;;6187646;23;20001;-91
2022/01/22 05:12:57;;;;;;;61.00;22.85;;;-1.50;99.60;;;;;;6161329;23;20005;-92
2022/01/22 05:15:23;;;;;;;34.80;14.27;;;-1.50;99.90;;;;;;6161489;23;20012;-91
2022/01/22 05:17:49;;;;;;;22.70;9.68;;;-1.50;99.80;;;;;;6160449;23;20019;-88
2022/01/22 05:20:25;;;;;;;16.08;7.03;;;-1.50;99.80;;;;;;6187295;23;20001;-84
2022/01/22 05:25:43;;;;;;;10.00;5.50;;;-1.60;99.50;;;;;;6186661;23;20001;-83
2022/01/22 05:38:21;;;;;;;8.13;4.75;;;-1.60;99.90;;;;;;6185246;23;20016;-85
2022/01/22 05:40:47;;;;;;;8.98;4.63;;;-1.60;99.90;;;;;;6158956;23;20009;-85
2022/01/22 05:43:12;;;;;;;8.18;4.55;;;-1.70;99.70;;;;;;6159167;23;20467;-88
2022/01/22 05:45:38;;;;;;;7.57;4.18;;;-1.70;99.80;;;;;;6159396;23;20492;-91
2022/01/22 05:48:04;;;;;;;8.77;4.10;;;-1.80;99.90;;;;;;6185224;23;20005;-91
2022/01/22 05:50:34;;;;;;;6.95;4.00;;;-1.80;99.90;;;;;;6158664;23;20001;-90
2022/01/22 05:53:06;;;;;;;7.20;3.92;;;-1.80;99.90;;;;;;6159818;23;20002;-91
2022/01/22 05:59:35;;;;;;;7.82;4.10;;;-1.80;99.90;;;;;;6185973;23;20023;-90
2022/01/22 06:01:14;;;;;;;7.30;4.10;;;-1.90;99.90;;;;;;6143193;23;20423;-86
2022/01/22 06:03:43;;;;;;;9.18;4.28;;;-1.80;99.90;;;;;;6185720;23;20004;-91
2022/01/22 06:06:12;;;;;;;7.95;4.47;;;-1.80;99.90;;;;;;6159394;23;20001;-91
2022/01/22 06:08:44;;;;;;;9.43;4.75;;;-1.70;99.90;;;;;;6159108;23;20081;-90
2022/01/22 06:11:12;;;;;;;9.65;4.35;;;-1.70;99.90;;;;;;6185140;23;20328;-90
2022/01/22 06:13:44;;;;;;;10.70;5.18;;;-1.70;99.90;;;;;;6158889;23;20444;-89
2022/01/22 06:16:30;;;;;;;12.82;5.28;;;-1.70;99.90;;;;;;6186080;23;20040;-87
2022/01/22 06:18:58;;;;;;;9.65;5.18;;;-1.60;99.90;;;;;;6185778;23;20001;-88
2022/01/22 06:21:27;;;;;;;10.18;5.32;;;-1.60;99.90;;;;;;6160746;23;20001;-85
2022/01/22 06:23:52;;;;;;;12.02;4.82;;;-1.60;99.90;;;;;;6161795;23;20035;-83
2022/01/22 06:26:18;;;;;;;10.45;4.65;;;-1.50;99.90;;;;;;6163281;23;20001;-88
2022/01/22 06:28:44;;;;;;;10.13;4.95;;;-1.50;99.90;;;;;;6163847;23;20009;-85
2022/01/22 06:31:15;;;;;;;9.80;5.03;;;-1.50;99.90;;;;;;6187962;23;20128;-85
2022/01/22 06:33:41;;;;;;;9.75;5.15;;;-1.50;99.90;;;;;;6161478;23;20092;-86
2022/01/22 06:36:07;;;;;;;8.23;5.18;;;-1.50;99.90;;;;;;6186001;23;20029;-86
2022/01/22 06:38:35;;;;;;;10.85;5.47;;;-1.50;99.90;;;;;;6186067;23;20020;-86
2022/01/22 06:43:48;;;;;;;9.15;5.07;;;-1.50;99.90;;;;;;6186887;23;20012;-85
2022/01/22 06:46:14;;;;;;;9.55;5.32;;;-1.50;99.90;;;;;;6160580;23;20446;-87
2022/01/22 06:48:39;;;;;;;10.15;5.15;;;-1.50;99.90;;;;;;6186356;23;20005;-87
2022/01/22 06:51:06;;;;;;;10.73;5.25;;;-1.50;99.90;;;;;;6186886;23;20306;-90
2022/01/22 06:53:40;;;;;;;11.68;5.53;;;-1.30;99.90;;;;;;6189767;23;20005;-85
2022/01/22 06:56:07;;;;;;;7.68;4.30;;;-1.20;99.90;;;;;;6163421;23;20007;-85
2022/01/22 06:58:33;;;;;;;9.77;4.75;;;-1.00;99.90;;;;;;6189472;23;20001;-86
2022/01/22 07:00:59;;;;;;;9.85;4.95;;;-0.80;99.90;;;;;;6188982;23;20494;-86
2022/01/22 07:03:27;;;;;;;10.32;5.57;;;-0.70;99.90;;;;;;6187448;23;20001;-86
2022/01/22 07:05:53;;;;;;;11.82;6.13;;;-0.60;99.90;;;;;;6160770;23;20429;-86
2022/01/22 07:08:19;;;;;;;12.50;6.05;;;-0.50;99.90;;;;;;6162242;23;20001;-87
2022/01/22 07:10:45;;;;;;;10.82;5.55;;;-0.50;99.90;;;;;;6162576;23;20009;-87
2022/01/22 07:13:10;;;;;;;9.90;5.35;;;-0.50;99.90;;;;;;6187582;23;20487;-88
2022/01/22 07:15:36;;;;;;;10.95;5.88;;;-0.50;99.90;;;;;;6191898;23;20004;-87
2022/01/22 07:18:03;;;;;;;11.32;5.35;;;-0.50;99.90;;;;;;6194321;23;20005;-85
2022/01/22 07:20:31;;;;;;;12.45;5.90;;;-0.50;99.90;;;;;;6161800;23;20512;-87
2022/01/22 07:23:03;;;;;;;11.98;5.28;;;-0.50;99.90;;;;;;6187372;23;20000;-84
2022/01/22 07:25:29;;;;;;;9.75;5.32;;;-0.50;99.90;;;;;;6161338;23;20005;-87
2022/01/22 07:27:56;;;;;;;11.25;5.60;;;-0.50;99.90;;;;;;6159980;23;20087;-87
2022/01/22 07:30:21;;;;;;;9.52;5.75;;;-0.60;99.90;;;;;;6160831;23;20329;-88
2022/01/22 07:32:47;;;;;;;9.63;4.88;;;-0.60;99.90;;;;;;6160948;23;20017;-86
2022/01/22 07:35:17;;;;;;;11.07;5.18;;;-0.50;99.90;;;;;;6187396;23;20004;-86
2022/01/22 07:38:26;;;;;;;9.38;5.18;;;-0.50;99.90;;;;;;6187303;23;20001;-88
2022/01/22 07:41:10;;;;;;;11.68;5.50;;;-0.40;99.90;;;;;;6064744;23;20001;-88
2022/01/22 07:44:22;;;;;;;11.63;5.55;;;-0.40;99.90;;;;;;6185494;23;20001;-88
2022/01/22 07:46:50;;;;;;;9.45;5.15;;;-0.40;99.90;;;;;;6188076;23;20057;-87
2022/01/22 07:49:34;;;;;;;9.80;5.50;;;-0.40;99.90;;;;;;6161801;23;20424;-88
2022/01/22 07:52:04;;;;;;;8.82;4.80;;;-0.50;99.90;;;;;;6188616;23;20091;-85
2022/01/22 07:54:32;;;;;;;11.55;5.07;;;-0.40;99.90;;;;;;6185219;23;20023;-87
2022/01/22 07:56:58;;;;;;;9.38;4.60;;;-0.40;99.90;;;;;;6186743;23;20014;-86
2022/01/22 07:59:24;;;;;;;10.82;5.57;;;-0.40;99.90;;;;;;6159425;23;20436;-86
2022/01/22 08:01:49;;;;;;;10.68;5.38;;;-0.40;99.90;;;;;;6184301;23;20329;-85
2022/01/22 08:04:22;;;;;;;9.55;5.10;;;-0.30;99.90;;;;;;6185085;23;20055;-85
2022/01/22 08:06:48;;;;;;;11.55;5.57;;;-0.20;99.90;;;;;;6185049;23;20004;-85
2022/01/22 08:09:14;;;;;;;11.43;4.90;;;-0.20;99.90;;;;;;6183634;23;20029;-85
2022/01/22 08:11:40;;;;;;;10.65;5.18;;;-0.20;99.90;;;;;;6183026;23;20492;-86
2022/01/22 08:14:09;;;;;;;10.68;5.80;;;-0.10;99.90;;;;;;6183497;23;20029;-85
2022/01/22 08:23:46;;;;;;;11.57;6.35;;;0.10;99.60;;;;;;6010179;23;20015;-87
2022/01/22 08:26:25;;;;;;;11.07;5.90;;;0.10;98.30;;;;;;6010858;23;20008;-86
2022/01/22 08:28:53;;;;;;;11.27;6.15;;;0.20;98.10;;;;;;6031978;23;20453;-86
2022/01/22 08:31:37;;;;;;;10.15;5.68;;;0.10;98.20;;;;;;6062828;23;20066;-87
2022/01/22 08:36:48;;;;;;;8.48;4.90;;;0.20;97.80;;;;;;6096709;23;20061;-87
2022/01/22 08:39:17;;;;;;;13.20;6.07;;;0.20;98.20;;;;;;6097563;23;20007;-86
2022/01/22 08:41:46;;;;;;;11.35;6.28;;;0.20;98.10;;;;;;6119483;23;20013;-86
2022/01/22 08:44:13;;;;;;;12.02;6.32;;;0.20;98.00;;;;;;6155550;23;20001;-87
2022/01/22 08:46:38;;;;;;;9.95;5.70;;;0.20;98.00;;;;;;6129437;23;20425;-86
2022/01/22 08:49:06;;;;;;;9.52;5.32;;;0.20;98.40;;;;;;6155676;23;20032;-87
2022/01/22 08:51:33;;;;;;;11.35;5.50;;;0.10;98.30;;;;;;6155974;23;20084;-87
2022/01/22 08:54:01;;;;;;;9.15;4.97;;;0.10;98.50;;;;;;6157178;23;20010;-88
2022/01/22 08:56:28;;;;;;;9.52;5.10;;;0.10;98.70;;;;;;6156863;23;20001;-88
2022/01/22 08:58:54;;;;;;;10.82;5.57;;;0.10;99.20;;;;;;6156455;23;20013;-87
2022/01/22 09:01:21;;;;;;;15.13;6.03;;;0.10;99.70;;;;;;6156763;23;20008;-87
2022/01/22 09:03:48;;;;;;;9.13;5.70;;;0.10;99.90;;;;;;6131248;23;20004;-86
2022/01/22 09:06:14;;;;;;;12.55;5.75;;;0.10;99.90;;;;;;6156866;23;20421;-86
2022/01/22 09:08:40;;;;;;;11.30;5.40;;;0.20;99.90;;;;;;6133341;23;20020;-86
2022/01/22 09:11:06;;;;;;;9.07;5.50;;;0.30;99.90;;;;;;6158994;23;20001;-87
2022/01/22 09:13:33;;;;;;;10.75;5.50;;;0.40;99.50;;;;;;6130625;23;20075;-86
2022/01/22 09:16:00;;;;;;;10.32;5.28;;;0.50;98.10;;;;;;6130627;23;20329;-87
2022/01/22 09:18:28;;;;;;;12.43;5.97;;;0.60;98.00;;;;;;6130479;23;20076;-86
2022/01/22 09:23:19;;;;;;;11.40;6.40;;;0.70;97.60;;;;;;6157283;23;20005;-84
2022/01/22 09:25:46;;;;;;;12.10;5.95;;;0.80;97.10;;;;;;6156867;23;20001;-83
2022/01/22 09:28:13;;;;;;;13.40;7.07;;;0.80;97.30;;;;;;6156646;23;20080;-82
2022/01/22 09:30:43;;;;;;;14.75;7.53;;;0.90;96.20;;;;;;6155847;23;20002;-84
2022/01/22 09:33:09;;;;;;;13.90;7.17;;;0.90;96.00;;;;;;6130385;23;20016;-84
2022/01/22 09:35:35;;;;;;;11.35;6.70;;;0.90;95.80;;;;;;6156591;23;19997;-84
2022/01/22 09:38:00;;;;;;;10.13;6.00;;;0.90;95.70;;;;;;6156257;23;20068;-84
2022/01/22 09:40:28;;;;;;;17.15;7.28;;;1.00;94.80;;;;;;6156378;23;20002;-83
2022/01/22 09:42:55;;;;;;;13.57;6.22;;;1.00;95.90;;;;;;6156419;23;20032;-85
2022/01/22 09:45:22;;;;;;;11.65;6.50;;;1.30;96.50;;;;;;6156348;23;20049;-84
2022/01/22 09:47:49;;;;;;;10.68;5.88;;;1.60;94.20;;;;;;6130635;23;20029;-84
2022/01/22 09:50:22;;;;;;;11.65;5.95;;;1.90;94.50;;;;;;6156132;23;20008;-88
2022/01/22 09:52:51;;;;;;;8.70;5.10;;;2.30;91.70;;;;;;6156430;23;20052;-86
2022/01/22 09:55:17;;;;;;;9.70;5.20;;;2.50;89.00;;;;;;6131482;23;20005;-86
2022/01/22 09:57:44;;;;;;;10.10;5.55;;;2.50;86.70;;;;;;6129581;23;20081;-88
2022/01/22 10:00:13;;;;;;;9.30;5.00;;;2.60;85.90;;;;;;6135107;23;20084;-85
2022/01/22 10:02:40;;;;;;;8.60;5.07;;;2.50;81.70;;;;;;6130253;23;20084;-86
2022/01/22 10:05:24;;;;;;;8.45;4.70;;;2.50;80.80;;;;;;6130123;23;20006;-87
2022/01/22 10:07:52;;;;;;;8.63;4.95;;;2.50;78.70;;;;;;6129773;23;20013;-89
2022/01/22 10:10:18;;;;;;;10.18;5.90;;;2.40;79.10;;;;;;6128708;23;20048;-89
2022/01/22 10:12:57;;;;;;;9.10;5.75;;;2.50;80.60;;;;;;6157525;23;20076;-85
2022/01/22 10:15:22;;;;;;;9.43;5.38;;;2.70;81.10;;;;;;6130441;23;20425;-87
2022/01/22 10:17:48;;;;;;;11.88;6.22;;;3.20;80.10;;;;;;6155056;23;20032;-88
2022/01/22 10:20:32;;;;;;;10.55;5.93;;;3.70;79.80;;;;;;6154638;23;20001;-87
2022/01/22 10:23:19;;;;;;;11.88;6.00;;;4.50;75.90;;;;;;6154800;23;20308;-87
2022/01/22 10:25:53;;;;;;;18.25;8.23;;;5.40;73.60;;;;;;6128019;23;20005;-86
2022/01/22 10:28:24;;;;;;;16.30;8.02;;;5.90;69.20;;;;;;6128813;23;20009;-85
2022/01/22 10:31:03;;;;;;;22.52;9.85;;;6.00;70.00;;;;;;6156005;23;20451;-87
2022/01/22 10:36:20;;;;;;;13.25;6.60;;;6.00;66.60;;;;;;6186936;23;20001;-86
2022/01/22 10:38:48;;;;;;;14.32;6.78;;;5.70;64.70;;;;;;6159389;23;19997;-86
2022/01/22 10:41:16;;;;;;;14.20;6.28;;;5.40;64.70;;;;;;6159399;23;20032;-85
2022/01/22 10:43:52;;;;;;;13.90;6.95;;;5.00;65.00;;;;;;6160279;23;20051;-86
2022/01/22 10:46:20;;;;;;;13.55;6.70;;;4.50;64.20;;;;;;6166592;23;20001;-80
2022/01/22 10:49:07;;;;;;;10.55;5.53;;;4.10;65.70;;;;;;6178538;23;19985;-91
2022/01/22 10:51:44;;;;;;;12.02;6.18;;;3.80;66.90;;;;;;6172448;23;20005;-83
2022/01/22 10:54:10;;;;;;;10.20;5.50;;;3.60;67.60;;;;;;6188177;23;20001;-87
2022/01/22 10:56:40;;;;;;;11.43;5.75;;;3.60;68.50;;;;;;6158517;23;20092;-87
2022/01/22 10:59:11;;;;;;;10.27;5.93;;;3.50;68.00;;;;;;6159880;23;20009;-87
2022/01/22 11:01:50;;;;;;;;;;;3.40;68.00;;;;;;6184664;23;20005;-87
2022/01/22 11:04:18;;;;;;;8.43;4.50;;;3.20;66.60;;;;;;6158603;23;19907;-87
2022/01/22 11:07:03;;;;;;;8.48;4.20;;;3.10;68.20;;;;;;6185585;23;20321;-87
2022/01/22 11:09:30;;;;;;;6.30;3.65;;;2.90;68.50;;;;;;6159911;23;20009;-88
2022/01/22 11:11:58;;;;;;;8.90;3.92;;;2.80;68.50;;;;;;6157709;23;20008;-88
2022/01/22 11:14:26;;;;;;;6.63;3.75;;;2.60;68.00;;;;;;6185890;23;20009;-88
2022/01/22 11:16:53;;;;;;;6.63;3.78;;;2.40;68.80;;;;;;6158557;23;20332;-89
2022/01/22 11:19:24;;;;;;;6.60;3.65;;;2.20;69.50;;;;;;6159369;23;20387;-86
2022/01/22 11:21:53;;;;;;;6.72;3.50;;;2.10;70.20;;;;;;6184776;23;20055;-85
2022/01/22 11:24:24;;;;;;;5.22;3.22;;;2.00;70.60;;;;;;6184760;23;20485;-87
2022/01/22 11:26:57;;;;;;;6.85;3.65;;;2.00;70.90;;;;;;6160804;23;20001;-87
2022/01/22 11:29:30;;;;;;;6.82;3.45;;;2.00;71.00;;;;;;6160954;23;20009;-86
2022/01/22 11:32:03;;;;;;;6.72;3.40;;;2.00;71.10;;;;;;6188530;23;20024;-87
2022/01/22 11:34:32;;;;;;;10.45;5.65;;;2.00;71.10;;;;;;6188252;23;19997;-86
2022/01/22 11:37:06;;;;;;;35.05;17.90;;;1.90;71.60;;;;;;6161158;23;20005;-85
2022/01/22 11:39:33;;;;;;;19.77;9.63;;;2.00;72.10;;;;;;6160995;23;20024;-94
2022/01/22 11:41:59;;;;;;;15.98;7.70;;;2.00;72.10;;;;;;6161081;23;20011;-86
2022/01/22 11:44:51;;;;;;;10.25;5.35;;;2.10;71.90;;;;;;6187138;23;19997;-87
2022/01/22 11:47:22;;;;;;;9.30;4.55;;;2.10;71.50;;;;;;6188108;23;19993;-88
2022/01/22 11:50:07;;;;;;;6.00;3.53;;;2.10;71.10;;;;;;6161924;23;20009;-88
2022/01/22 11:52:44;;;;;;;5.20;3.45;;;2.10;71.10;;;;;;6161818;23;20028;-89
2022/01/22 11:55:13;;;;;;;7.18;3.72;;;2.10;71.50;;;;;;6162210;23;20005;-87
2022/01/22 11:57:41;;;;;;;7.28;3.80;;;2.10;71.70;;;;;;6186655;23;20404;-87
2022/01/22 12:00:22;;;;;;;5.60;3.33;;;2.10;70.70;;;;;;6188130;23;19997;-87
2022/01/22 12:03:08;;;;;;;6.30;3.40;;;2.00;70.70;;;;;;6188532;23;19993;-88
2022/01/22 12:05:54;;;;;;;6.22;3.42;;;2.00;71.10;;;;;;6186359;23;20293;-87
2022/01/22 12:08:21;;;;;;;4.40;3.00;;;2.00;71.40;;;;;;6160511;23;20004;-89
2022/01/22 12:16:40;;;;;;;7.68;3.47;;;1.90;71.20;;;;;;6187617;23;20427;-87
2022/01/22 12:19:48;;;;;;;6.15;3.72;;;2.00;71.00;;;;;;6188020;23;20416;-88
2022/01/22 12:22:37;;;;;;;8.80;3.53;;;2.00;70.80;;;;;;6187074;23;20008;-88
2022/01/22 12:25:23;;;;;;;5.32;3.30;;;2.00;71.20;;;;;;6161636;23;20040;-88
2022/01/22 12:27:49;;;;;;;5.43;3.40;;;2.00;70.90;;;;;;6186572;23;19997;-89
2022/01/22 12:30:31;;;;;;;5.68;3.38;;;2.10;70.70;;;;;;6161024;23;20005;-86
2022/01/22 12:32:59;;;;;;;6.72;3.78;;;2.30;71.10;;;;;;6162137;23;20101;-89
2022/01/22 12:35:46;;;;;;;6.03;3.25;;;2.40;70.40;;;;;;6162705;23;20332;-87
2022/01/22 12:44:04;;;;;;;192.88;85.63;;;2.80;67.90;;;;;;6191025;23;20009;-84
2022/01/22 12:46:31;;;;;;;59.45;29.60;;;2.90;67.60;;;;;;6189663;23;20352;-86
2022/01/22 12:48:57;;;;;;;32.15;14.88;;;2.70;67.40;;;;;;6189420;23;20068;-87
2022/01/22 12:51:26;;;;;;;18.17;9.75;;;2.60;67.50;;;;;;6160666;23;20073;-86
2022/01/22 12:53:52;;;;;;;12.48;6.18;;;2.60;68.00;;;;;;6185379;23;20064;-86
2022/01/22 12:59:01;;;;;;;8.82;4.78;;;2.30;67.70;;;;;;6197215;23;20022;-86
2022/01/22 13:01:30;;;;;;;8.25;4.25;;;2.20;68.00;;;;;;6187107;23;20016;-86
2022/01/22 13:03:57;;;;;;;6.55;3.83;;;2.10;68.00;;;;;;6187293;23;19997;-86
2022/01/22 13:06:26;;;;;;;6.25;3.67;;;2.00;68.50;;;;;;6186656;23;20020;-86
2022/01/22 13:08:56;;;;;;;6.90;3.58;;;1.90;68.70;;;;;;6160128;23;20009;-87
2022/01/22 13:11:28;;;;;;;5.95;3.55;;;1.80;68.50;;;;;;6185321;23;20061;-88
2022/01/22 13:13:54;;;;;;;5.47;3.63;;;1.70;68.70;;;;;;6185849;23;20325;-86
2022/01/22 13:16:53;;;;;;;7.35;3.53;;;1.50;69.10;;;;;;6186622;23;19997;-88
2022/01/22 13:19:20;;;;;;;8.45;3.80;;;1.40;69.70;;;;;;6188192;23;20001;-87
2022/01/22 13:21:54;;;;;;;6.95;3.67;;;1.40;69.70;;;;;;6187769;23;20005;-87
2022/01/22 13:24:25;;;;;;;6.88;3.80;;;1.30;69.90;;;;;;6187328;23;20008;-87
2022/01/22 13:29:34;;;;;;;6.97;3.30;;;1.10;70.60;;;;;;6185286;23;20086;-85
2022/01/22 13:32:08;;;;;;;6.60;3.88;;;1.00;70.90;;;;;;6159713;23;20125;-85
2022/01/22 13:34:59;;;;;;;5.60;3.50;;;1.00;71.10;;;;;;6186502;23;19997;-87
2022/01/22 13:38:02;;;;;;;7.40;3.80;;;0.90;71.30;;;;;;6186758;23;20001;-86
2022/01/22 13:52:50;;;;;;;;;;;;;;;;;;;;;
2022/01/22 13:56:23;;;;;;;;;;;;;;;;;;;;;
2022/01/22 13:59:41;;;;;;;6.88;3.30;;;0.60;73.40;;;;;;6002704;23;20037;-92
2022/01/22 14:04:55;;;;;;;5.90;3.45;;;0.50;73.60;;;;;;6091120;23;20315;-85
2022/01/22 14:07:32;;;;;;;7.15;3.78;;;0.50;73.80;;;;;;6149477;23;20377;-88
2022/01/22 14:09:59;;;;;;;6.95;3.78;;;0.50;73.90;;;;;;6185282;23;19993;-87
2022/01/22 14:12:33;;;;;;;6.30;3.63;;;0.40;74.00;;;;;;6185673;23;20011;-88
2022/01/22 14:15:01;;;;;;;6.35;3.47;;;0.50;74.20;;;;;;6188403;23;20013;-87
2022/01/22 14:17:37;;;;;;;6.47;3.58;;;0.40;74.20;;;;;;6206556;23;20041;-86
2022/01/22 14:20:12;;;;;;;36.67;18.05;;;0.30;74.30;;;;;;6206577;23;20012;-85
2022/01/22 14:23:14;;;;;;;34.85;16.80;;;0.30;74.30;;;;;;6206183;23;20017;-89
2022/01/22 14:26:11;;;;;;;20.98;9.93;;;0.30;74.40;;;;;;6161452;23;20005;-92
2022/01/22 14:28:50;;;;;;;14.48;7.05;;;0.20;74.60;;;;;;6185591;23;20011;-90
2022/01/22 14:31:43;;;;;;;11.65;6.05;;;0.20;74.70;;;;;;6183383;23;20009;-90
2022/01/22 14:34:28;;;;;;;10.65;4.68;;;0.20;74.80;;;;;;6183183;23;20048;-91
2022/01/22 14:36:54;;;;;;;7.97;4.60;;;0.10;74.90;;;;;;6185152;23;20001;-88
2022/01/22 14:44:54;;;;;;;9.43;5.15;;;0.00;84.10;;;;;;6183576;23;20033;-88
2022/01/22 14:47:22;;;;;;;8.73;5.10;;;-0.30;87.70;;;;;;6157437;23;19997;-89
2022/01/22 14:49:54;;;;;;;10.30;4.88;;;-0.50;90.30;;;;;;6184797;23;20005;-88
2022/01/22 14:52:22;;;;;;;8.05;4.55;;;-0.60;90.40;;;;;;6186350;23;20032;-87
2022/01/22 14:54:50;;;;;;;6.63;3.45;;;-0.70;91.40;;;;;;6183446;23;20487;-87
2022/01/22 14:57:21;;;;;;;6.45;3.28;;;-0.70;91.80;;;;;;6158577;23;20035;-88
2022/01/22 14:59:47;;;;;;;5.20;2.80;;;-0.70;92.00;;;;;;6186321;23;20072;-89
2022/01/22 15:02:18;;;;;;;5.55;3.20;;;-0.80;92.80;;;;;;6164789;23;20028;-86
2022/01/22 15:04:44;;;;;;;6.30;3.72;;;-0.80;92.30;;;;;;6192954;23;19997;-89
2022/01/22 15:07:13;;;;;;;6.30;3.20;;;-0.80;92.70;;;;;;6161709;23;20001;-89
2022/01/22 15:09:40;;;;;;;8.60;4.28;;;-0.80;92.40;;;;;;6187194;23;20029;-89
2022/01/22 15:12:10;;;;;;;8.70;4.20;;;-0.90;92.90;;;;;;6160763;23;20413;-89
2022/01/22 15:14:37;;;;;;;6.63;3.47;;;-0.90;93.90;;;;;;6187269;23;20005;-88
2022/01/22 15:19:38;;;;;;;5.03;3.05;;;-0.90;93.50;;;;;;6198208;23;20030;-88
2022/01/22 15:22:05;;;;;;;;;;;-1.00;93.30;;;;;;6163568;23;20009;-87
2022/01/22 15:25:10;;;;;;;5.45;2.78;;;-1.00;97.20;;;;;;6189762;23;19900;-88
2022/01/22 15:27:41;;;;;;;5.55;3.70;;;-1.10;94.40;;;;;;6186642;23;20005;-90
2022/01/22 15:30:12;;;;;;;11.60;5.50;;;-1.10;93.50;;;;;;6189039;23;20416;-89
2022/01/22 15:32:48;;;;;;;11.40;5.72;;;-1.20;95.30;;;;;;6161550;23;20013;-89
2022/01/22 15:35:17;;;;;;;8.52;4.90;;;-1.20;95.10;;;;;;6188522;23;20001;-88
2022/01/22 15:37:51;;;;;;;8.50;4.60;;;-1.20;95.10;;;;;;6187782;23;20009;-88
2022/01/22 15:40:30;;;;;;;7.47;4.00;;;-1.20;95.20;;;;;;6187965;23;19997;-89
2022/01/22 15:43:00;;;;;;;6.80;3.90;;;-1.10;95.10;;;;;;6186410;23;20431;-89